Latest Weather Observations for Geraldton Airport

IDW60801

Issued at 5:23 pm WST Sunday 24 January 2021 (issued every 10 minutes, with the page automatically refreshed every 10 minutes)

About weather observations | Map of weather stations | Latest weather observations for WA | Other Formats
Station Details ID: 008315 Name: GERALDTON AIRPORT Lat: -28.80 Lon: 114.70 Height: 29.7 m
Data from the previous 72 hours. | See also: Recent months at Geraldton Airport
Date/Time
WST
Temp
°C
App
Temp
°C
Dew
Point
°C
Rel
Hum
%
Delta-T
°C
Wind Press
QNH
hPa
Press
MSL
hPa
Rain since
9am
mm
Dir  Spd
km/h
Gust
km/h
Spd
kts
Gust
kts
24/11:00am 24.8 22.1 14.6 53 6.1 SW 22 33 12 18 1008.9 1008.8 0.0
24/10:30am 25.6 23.2 14.4 50 6.7 SW 20 30 11 16 1008.8 1008.7 0.0
24/10:00am 25.1 22.7 14.3 51 6.4 SW 20 30 11 16 1008.8 1008.7 0.0
24/09:30am 25.5 23.5 14.9 52 6.4 SW 19 37 10 20 1008.7 1008.6 0.0
24/09:00am 25.0 22.3 14.5 52 6.3 SSW 22 30 12 16 1008.8 1008.7 0.0
24/08:30am 23.6 21.2 14.3 56 5.5 SW 20 26 11 14 1008.9 1008.8 0.0
24/08:00am 23.9 21.8 13.7 53 6.0 SW 17 24 9 13 1008.6 1008.5 0.0
24/07:30am 23.6 21.4 14.3 56 5.5 SSW 19 22 10 12 1008.5 1008.4 0.0
24/07:00am 23.1 21.3 14.4 58 5.1 SW 17 22 9 12 1008.2 1008.1 0.0
24/06:30am 21.5 20.5 14.6 65 4.1 SSW 13 15 7 8 1007.9 1007.8 0.0
24/06:00am 21.3 19.9 14.5 65 4.0 SSW 15 20 8 11 1007.5 1007.4 0.0
24/05:30am 21.6 19.7 14.3 63 4.3 SSW 17 22 9 12 1007.3 1007.2 0.0
24/05:00am 21.7 19.7 15.5 68 3.7 SSW 20 28 11 15 1007.1 1007.0 0.0
24/04:30am 21.2 20.2 16.6 75 2.8 SSW 17 20 9 11 1006.8 1006.7 0.0
24/04:00am 21.2 20.6 15.7 71 3.3 SSW 13 17 7 9 1006.6 1006.5 0.0
24/03:30am 21.6 20.3 15.9 70 3.4 SSW 17 22 9 12 1006.5 1006.4 0.0
24/03:00am 21.6 20.4 16.1 71 3.3 SSW 17 20 9 11 1006.3 1006.2 0.0
24/02:30am 20.9 20.5 16.3 75 2.8 SSW 13 17 7 9 1006.3 1006.2 0.0
24/02:00am 21.3 20.8 16.0 72 3.2 SSW 13 17 7 9 1006.4 1006.3 0.0
24/01:30am 21.5 21.2 16.5 73 3.0 SSW 13 15 7 8 1006.4 1006.3 0.0
24/01:00am 21.9 20.3 16.4 71 3.3 S 20 26 11 14 1006.2 1006.1 0.0
24/12:30am 22.0 21.0 16.7 72 3.2 SSW 17 20 9 11 1006.3 1006.2 0.0
24/12:00am 21.6 21.7 16.6 73 3.0 S 11 15 6 8 1006.5 1006.4 0.0
 
Date/Time
WST
Temp
°C
App
Temp
°C
Dew
Point
°C
Rel
Hum
%
Delta-T
°C
Wind Press
QNH
hPa
Press
MSL
hPa
Rain since
9am
mm
Dir  Spd
km/h
Gust
km/h
Spd
kts
Gust
kts
23/11:30pm 21.2 20.9 16.4 74 2.9 SSW 13 17 7 9 1006.6 1006.5 0.0
23/11:00pm 21.4 20.8 16.6 74 2.9 SSW 15 20 8 11 1006.8 1006.7 0.0
23/10:30pm 21.3 20.7 16.7 75 2.8 S 15 19 8 10 1006.9 1006.8 0.0
23/10:00pm 21.7 20.8 16.9 74 2.9 S 17 22 9 12 1006.8 1006.7 0.0
23/09:30pm 22.2 20.8 16.9 72 3.2 SSW 20 24 11 13 1006.9 1006.8 0.0
23/09:00pm 22.4 21.2 17.1 72 3.3 SSW 19 24 10 13 1006.9 1006.8 0.0
23/08:30pm 22.6 21.9 17.3 72 3.3 SSW 17 22 9 12 1006.6 1006.5 0.0
23/08:00pm 22.7 21.1 17.4 72 3.3 S 22 30 12 16 1006.2 1006.1 0.0
23/07:30pm 23.0 21.4 17.5 71 3.4 SSW 22 28 12 15 1006.1 1006.0 0.0
23/07:00pm 23.3 21.8 17.7 71 3.5 SSW 22 32 12 17 1005.9 1005.8 0.0
23/06:30pm 23.7 22.6 17.7 69 3.7 SSW 20 28 11 15 1005.4 1005.2 0.0
23/06:00pm 24.3 22.5 17.8 67 4.1 SSW 24 30 13 16 1005.0 1004.8 0.0
23/05:30pm 24.6 22.8 17.8 66 4.3 SSW 24 32 13 17 1004.6 1004.4 0.0
23/05:00pm 25.1 23.3 17.8 64 4.6 SSW 24 32 13 17 1004.5 1004.3 0.0
23/04:30pm 25.1 23.1 18.3 66 4.3 SW 26 33 14 18 1004.2 1004.0 0.0
23/04:00pm 26.1 24.4 18.2 61 5.0 SW 24 32 13 17 1004.3 1004.1 0.0
23/03:30pm 25.5 23.8 18.2 64 4.6 SSW 24 32 13 17 1004.6 1004.4 0.0
23/03:00pm 26.0 24.2 17.9 61 5.1 SW 24 33 13 18 1004.5 1004.3 0.0
23/02:30pm 25.7 23.8 17.6 61 5.1 SSW 24 32 13 17 1004.4 1004.2 0.0
23/02:00pm 26.5 24.9 18.4 61 5.2 SW 24 33 13 18 1004.3 1004.1 0.0
23/01:30pm 26.1 25.3 18.5 63 4.8 SW 20 32 11 17 1004.4 1004.2 0.0
23/01:00pm 26.2 24.6 18.3 61 5.0 SW 24 33 13 18 1004.5 1004.3 0.0
23/12:30pm 26.1 23.8 17.7 60 5.3 SW 26 33 14 18 1004.3 1004.1 0.0
23/12:00pm 27.1 25.1 18.4 59 5.6 SW 26 37 14 20 1004.4 1004.2 0.0
23/11:30am 26.0 23.8 17.9 61 5.1 SW 26 43 14 23 1004.6 1004.4 0.0
23/11:00am 26.2 24.3 17.6 59 5.4 SW 24 33 13 18 1004.6 1004.4 0.0
23/10:30am 25.8 23.8 17.4 59 5.3 WSW 24 32 13 17 1004.7 1004.5 0.0
23/10:00am 25.9 24.4 17.8 61 5.1 WSW 22 30 12 16 1004.9 1004.7 0.0
23/09:30am 25.9 24.8 17.8 61 5.1 SW 20 28 11 15 1004.9 1004.7 0.0
23/09:00am 25.2 24.7 17.9 64 4.6 SW 17 24 9 13 1005.1 1004.9 0.0
23/08:30am 24.3 23.4 18.2 68 3.8 SW 20 28 11 15 1004.8 1004.6 0.0
23/08:00am 24.4 22.6 18.8 71 3.6 SW 26 33 14 18 1004.7 1004.5 0.0
23/07:30am 23.9 23.4 19.0 74 3.1 SW 20 24 11 13 1004.6 1004.4 0.0
23/07:00am 23.7 23.1 18.8 74 3.1 WSW 20 26 11 14 1004.4 1004.2 0.0
23/06:30am 23.3 23.3 19.0 77 2.7 WSW 17 20 9 11 1004.0 1003.8 0.0
23/06:00am 22.9 22.5 18.9 78 2.5 WSW 19 24 10 13 1003.8 1003.6 0.0
23/05:30am 22.7 22.8 19.1 80 2.3 WSW 17 20 9 11 1003.4 1003.2 0.0
23/05:00am 22.6 22.9 18.8 79 2.4 WSW 15 20 8 11 1003.2 1003.0 0.0
23/04:30am 22.8 22.9 19.2 80 2.3 WSW 17 22 9 12 1003.1 1002.9 0.0
23/04:10am 22.8 22.9 19.2 80 2.3 WSW 17 22 9 12 1002.8 1002.6 0.0
23/04:00am 22.9 22.5 19.3 80 2.3 WSW 20 26 11 14 1002.7 1002.5 0.0
23/03:30am 23.0 23.6 19.4 80 2.3 W 15 20 8 11 1002.4 1002.2 0.0
23/03:00am 22.9 23.9 19.5 81 2.2 WSW 13 19 7 10 1002.6 1002.4 0.0
23/02:30am 22.8 23.9 19.6 82 2.0 W 13 17 7 9 1002.5 1002.3 0.0
23/02:00am 22.5 24.0 19.7 84 1.8 WSW 11 15 6 8 1002.4 1002.2 0.0
23/01:30am 22.0 23.5 19.0 83 1.9 SSW 9 11 5 6 1002.7 1002.5 0.0
23/01:18am 22.3 23.6 19.3 83 1.9 SW 11 15 6 8 1002.7 1002.5 0.0
23/01:00am 22.4 23.4 19.4 83 1.9 SW 13 15 7 8 1002.9 1002.7 0.0
23/12:47am 22.5 23.0 19.3 82 2.0 SW 15 20 8 11 1003.0 1002.8 0.0
23/12:30am 22.7 22.9 19.3 81 2.2 SW 17 22 9 12 1003.2 1003.0 0.0
23/12:06am 22.9 23.2 19.7 82 2.1 SW 17 24 9 13 1003.5 1003.3 0.0
23/12:00am 22.9 23.2 19.7 82 2.1 SW 17 24 9 13 1003.4 1003.2 0.0
 
Date/Time
WST
Temp
°C
App
Temp
°C
Dew
Point
°C
Rel
Hum
%
Delta-T
°C
Wind Press
QNH
hPa
Press
MSL
hPa
Rain since
9am
mm
Dir  Spd
km/h
Gust
km/h
Spd
kts
Gust
kts
22/11:48pm 22.9 23.2 19.7 82 2.1 SW 17 22 9 12 1003.5 1003.3 0.0
22/11:36pm 23.1 23.5 19.9 82 2.1 SW 17 22 9 12 1003.5 1003.3 0.0
22/11:34pm 23.0 23.3 19.6 81 2.2 SW 17 22 9 12 1003.6 1003.4 0.0
22/11:30pm 23.0 23.3 19.6 81 2.2 SW 17 22 9 12 1003.7 1003.5 0.0
22/11:12pm 23.1 23.4 19.7 81 2.2 SW 17 20 9 11 1004.0 1003.8 0.0
22/11:00pm 22.9 23.5 19.5 81 2.2 SW 15 19 8 10 1004.0 1003.8 0.0
22/10:30pm 23.1 23.7 19.5 80 2.3 SSW 15 17 8 9 1003.8 1003.6 0.0
22/10:04pm 23.3 24.0 19.7 80 2.3 SSW 15 20 8 11 1004.0 1003.8 0.0
22/10:00pm 23.4 23.8 19.8 80 2.3 SSW 17 22 9 12 1004.0 1003.8 0.0
22/09:30pm 23.7 23.8 20.0 80 2.4 SW 19 24 10 13 1004.1 1003.9 0.0
22/09:00pm 23.9 23.9 19.8 78 2.7 SW 19 24 10 13 1003.8 1003.6 0.0
22/08:41pm 24.0 24.1 19.9 78 2.6 SW 19 24 10 13 1003.6 1003.4 0.0
22/08:30pm 24.1 23.9 19.8 77 2.8 SW 20 28 11 15 1003.5 1003.3 0.0
22/08:00pm 24.3 24.2 19.6 75 3.0 SW 19 24 10 13 1003.3 1003.1 0.0
22/07:30pm 24.8 24.1 19.6 73 3.4 WSW 22 28 12 15 1003.2 1003.0 0.0
22/07:00pm 25.4 25.1 19.5 70 3.8 WSW 20 26 11 14 1002.8 1002.6 0.0
22/06:30pm 26.5 26.4 19.9 67 4.3 SW 20 28 11 15 1002.5 1002.3 0.0
22/06:00pm 27.0 26.0 19.6 64 4.8 SW 24 30 13 16 1002.1 1001.9 0.0
22/05:30pm 27.8 26.8 19.6 61 5.3 SW 24 32 13 17 1001.9 1001.7 0.0
22/05:00pm 28.6 26.4 18.7 55 6.4 SW 28 33 15 18 1001.7 1001.5 0.0
22/04:30pm 29.3 26.7 17.8 50 7.3 SSW 28 33 15 18 1001.6 1001.4 0.0
22/04:00pm 30.4 27.3 17.5 46 8.2 SW 30 35 16 19 1001.6 1001.4 0.0
22/03:30pm 31.0 28.5 17.0 43 8.9 WSW 26 32 14 17 1001.8 1001.6 0.0
22/03:00pm 31.4 29.0 17.3 43 9.0 WSW 26 33 14 18 1001.9 1001.7 0.0
22/02:30pm 31.0 28.1 16.2 41 9.3 WSW 26 33 14 18 1002.1 1001.9 0.0
22/02:00pm 30.6 28.1 16.2 41 9.0 WSW 24 35 13 19 1002.3 1002.1 0.0
22/01:30pm 31.1 29.0 18.1 46 8.4 SW 26 33 14 18 1002.6 1002.4 0.0
22/01:00pm 30.2 28.2 18.3 49 7.7 WSW 26 33 14 18 1002.9 1002.7 0.0
22/12:30pm 30.7 29.7 18.8 49 7.7 SW 22 30 12 16 1003.2 1003.0 0.0
22/12:00pm 31.4 30.7 18.7 46 8.3 SW 20 30 11 16 1003.3 1003.1 0.0
22/11:30am 30.3 29.8 19.0 50 7.3 SW 20 28 11 15 1003.5 1003.3 0.0
22/11:00am 30.7 29.5 18.4 47 8.0 SW 22 28 12 15 1003.7 1003.5 0.0
22/10:30am 31.3 30.0 17.2 42 9.0 SW 20 26 11 14 1003.8 1003.6 0.0
22/10:00am 32.0 32.3 14.6 34 10.7 NE 6 11 3 6 1004.2 1004.0 0.0
22/09:30am 30.4 31.0 15.7 41 9.1 SW 7 19 4 10 1004.3 1004.1 0.0
22/09:00am 28.8 29.8 16.4 47 7.7 S 6 11 3 6 1004.6 1004.4 0.0
22/08:30am 28.2 29.6 17.4 52 6.8 SSE 6 13 3 7 1004.7 1004.5 0.0
22/08:00am 26.9 28.1 19.0 62 5.1 SE 11 17 6 9 1004.8 1004.6 0.0
22/07:30am 24.6 26.0 20.3 77 2.8 SSE 13 17 7 9 1004.7 1004.5 0.0
22/07:00am 23.1 26.0 20.6 86 1.6 ESE 6 7 3 4 1004.8 1004.6 0.0
22/06:30am 21.6 23.9 19.9 90 1.1 ENE 7 9 4 5 1004.7 1004.5 0.0
22/06:00am 20.2 22.5 18.5 90 1.1 NE 4 6 2 3 1004.5 1004.3 0.0
22/05:30am 20.5 22.9 18.8 90 1.1 ENE 4 7 2 4 1004.3 1004.1 0.0
22/05:00am 20.8 23.2 18.7 88 1.3 SE 4 6 2 3 1004.1 1003.9 0.0
22/04:30am 21.1 24.4 19.0 88 1.3 CALM 0 0 0 0 1004.1 1003.9 0.0
22/04:00am 21.9 23.7 19.6 87 1.5 SSE 9 13 5 7 1004.0 1003.8 0.0
22/03:30am 22.9 24.4 20.6 87 1.5 S 13 17 7 9 1004.1 1003.9 0.0
22/03:00am 23.1 24.2 20.4 85 1.8 S 15 19 8 10 1004.4 1004.2 0.0
22/02:30am 23.3 24.0 20.4 84 1.9 S 17 20 9 11 1004.4 1004.2 0.0
22/02:00am 23.4 24.0 20.3 83 2.0 S 17 22 9 12 1004.7 1004.5 0.0
22/01:30am 23.5 24.2 20.4 83 2.0 S 17 22 9 12 1005.0 1004.8 0.0
22/01:00am 23.6 23.4 20.5 83 2.0 S 22 28 12 15 1005.2 1005.0 0.0
22/12:30am 23.7 23.8 20.4 82 2.1 SSE 20 28 11 15 1005.5 1005.3 0.0
22/12:00am 24.1 23.7 20.2 79 2.5 SSE 22 30 12 16 1005.8 1005.6 0.0
 
Date/Time
WST
Temp
°C
App
Temp
°C
Dew
Point
°C
Rel
Hum
%
Delta-T
°C
Wind Press
QNH
hPa
Press
MSL
hPa
Rain since
9am
mm
Dir  Spd
km/h
Gust
km/h
Spd
kts
Gust
kts
21/11:30pm 24.3 23.4 19.8 76 2.9 SSE 24 30 13 16 1006.0 1005.9 0.0
21/11:00pm 24.7 23.8 19.8 74 3.2 S 24 32 13 17 1006.4 1006.3 0.0
21/10:30pm 24.7 23.4 19.8 74 3.2 SSE 26 35 14 19 1006.6 1006.5 0.0
21/10:00pm 25.0 23.7 19.8 73 3.4 S 26 33 14 18 1006.6 1006.5 0.0
21/09:30pm 25.2 24.3 19.8 72 3.5 S 24 33 13 18 1006.7 1006.6 0.0
21/09:00pm 25.1 24.1 19.7 72 3.5 S 24 35 13 19 1006.5 1006.4 0.0
21/08:30pm 25.0 23.6 19.6 72 3.5 S 26 33 14 18 1006.4 1006.3 0.0
21/08:00pm 25.0 24.4 19.8 73 3.4 S 22 30 12 16 1006.4 1006.3 0.0
21/07:30pm 25.1 24.2 19.9 73 3.4 S 24 33 13 18 1006.3 1006.2 0.0
21/07:00pm 25.5 24.7 20.1 72 3.5 S 24 32 13 17 1006.4 1006.3 0.0
21/06:30pm 26.0 24.0 19.9 69 4.0 SSW 30 37 16 20 1006.3 1006.2 0.0
21/06:00pm 26.8 25.1 19.9 66 4.5 S 28 35 15 19 1006.1 1006.0 0.0
21/05:30pm 27.6 25.2 19.9 63 5.0 SSW 32 39 17 21 1006.0 1005.9 0.0

Other formats

Comma delimited format used in spreadsheet applications
http://www.bom.gov.au/fwo/IDW60801/IDW60801.94403.axf

JavaScript Object Notation format (JSON) in row-major order
http://www.bom.gov.au/fwo/IDW60801/IDW60801.94403.json

Data quality

Most of these data are generated automatically and are frequently updated. Quality checks on data are not normally performed. It is possible for incorrect values to appear. Refer to information at About Latest Weather Observations and please check the disclaimer before using these data.